Gorhamtown, Louisiana
Current Conditions -  °F | °C
As of 8:15 PM on Sunday 21 Dec 2014 (Local Time) from KIER Reporting Station
Scattered Clouds Scattered Clouds  
Wind Chill: 50°   Ceiling: Unl
Heat Index: 50°   Visibility: 10mi
Dew Point: 48°   Wind: 7mph
Humidity: 94%   Direction: 150°SSE
Pressure: 29.95"   Gusts: NA
Location:  31.9379°N, 92.5858°W
Report Text: KIER 220215Z AUTO 15006KT 10SM SCT085 10/09 A2995 RMK AO2 T01000090
Loading
Personal Weather Stations






























Interactive Weather Map New forecast layout! Learn more

10-Day Weather Forecast

Advertisements
Track Severe Weather on mobile